createdAt,value
2018-06-15T00:00:12.030Z,58.10
2018-06-15T00:02:40.422Z,58.73
2018-06-15T00:05:08.838Z,58.36
2018-06-15T00:07:37.209Z,57.98
2018-06-15T00:10:05.627Z,58.93
2018-06-15T00:12:33.998Z,58.63
2018-06-15T00:15:02.394Z,58.54
2018-06-15T00:17:30.798Z,58.91
2018-06-15T00:19:59.238Z,59.09
2018-06-15T00:22:27.614Z,58.73
2018-06-15T00:24:55.990Z,58.93
2018-06-15T00:27:24.387Z,59.01
2018-06-15T00:29:52.767Z,59.56
2018-06-15T00:32:21.153Z,59.01
2018-06-15T00:34:49.517Z,59.78
2018-06-15T00:37:17.920Z,59.05
2018-06-15T00:39:46.293Z,59.72
2018-06-15T00:42:14.687Z,59.85
2018-06-15T00:44:43.378Z,59.84
2018-06-15T00:47:11.769Z,59.96
2018-06-15T00:49:40.143Z,59.71
2018-06-15T00:52:08.552Z,59.16
2018-06-15T00:54:36.946Z,59.50
2018-06-15T00:57:16.693Z,59.26
2018-06-15T00:59:45.067Z,59.58
2018-06-15T01:02:13.446Z,59.95
2018-06-15T01:04:41.870Z,59.46
2018-06-15T01:07:10.263Z,60.35
2018-06-15T01:09:38.812Z,60.21
2018-06-15T01:12:07.189Z,60.28
2018-06-15T01:14:35.681Z,59.75
2018-06-15T01:17:04.066Z,60.64
2018-06-15T01:19:32.646Z,60.50
2018-06-15T01:22:01.027Z,60.44
2018-06-15T01:24:29.438Z,60.27
2018-06-15T01:26:58.066Z,61.05
2018-06-15T01:29:26.506Z,60.85
2018-06-15T01:31:55.031Z,61.33
2018-06-15T01:34:23.429Z,60.55
2018-06-15T01:36:51.843Z,61.20
2018-06-15T01:39:20.267Z,60.73
2018-06-15T01:41:48.652Z,61.11
2018-06-15T01:44:17.063Z,60.35
2018-06-15T01:46:45.446Z,61.12
2018-06-15T01:49:13.841Z,61.59
2018-06-15T01:51:42.226Z,60.77
2018-06-15T01:54:10.634Z,61.18
2018-06-15T01:56:39.015Z,61.05
2018-06-15T01:59:07.430Z,60.58
2018-06-15T02:01:35.808Z,60.98
2018-06-15T02:04:04.206Z,61.33
2018-06-15T02:06:32.611Z,61.49
2018-06-15T02:09:01.030Z,61.82
2018-06-15T02:11:30.221Z,61.49
2018-06-15T02:13:58.604Z,61.51
2018-06-15T02:16:27.010Z,61.23
2018-06-15T02:18:55.391Z,61.16
2018-06-15T02:21:23.818Z,61.95
2018-06-15T02:23:52.226Z,61.95
2018-06-15T02:26:20.651Z,61.51
2018-06-15T02:28:49.030Z,62.28
2018-06-15T02:31:17.426Z,62.36
2018-06-15T02:33:45.811Z,62.55
2018-06-15T02:36:14.219Z,62.45
2018-06-15T02:38:42.609Z,62.29
2018-06-15T02:41:11.015Z,62.15
2018-06-15T02:43:39.385Z,63.08
2018-06-15T02:46:07.783Z,63.24
2018-06-15T02:48:36.172Z,62.56
2018-06-15T02:51:04.582Z,62.83
2018-06-15T02:53:32.962Z,63.05
2018-06-15T02:56:01.381Z,63.02
2018-06-15T02:58:29.763Z,63.33
2018-06-15T03:00:58.159Z,63.27
2018-06-15T03:03:26.535Z,63.89
2018-06-15T03:05:54.967Z,64.09
2018-06-15T03:08:23.347Z,63.22
2018-06-15T03:10:51.746Z,64.16
2018-06-15T03:13:20.127Z,63.72
2018-06-15T03:15:48.526Z,63.65
2018-06-15T03:18:17.487Z,63.83
2018-06-15T03:20:45.891Z,64.70
2018-06-15T03:23:14.267Z,64.93
2018-06-15T03:25:42.679Z,64.66
2018-06-15T03:28:11.055Z,64.45
2018-06-15T03:30:39.431Z,65.15
2018-06-15T03:33:07.836Z,65.36
2018-06-15T03:35:36.270Z,64.83
2018-06-15T03:38:04.674Z,65.42
2018-06-15T03:40:33.055Z,65.17
2018-06-15T03:43:01.455Z,65.25
2018-06-15T03:45:29.835Z,65.92
2018-06-15T03:47:58.242Z,65.88
2018-06-15T03:50:26.708Z,65.11
2018-06-15T03:52:55.126Z,65.24
2018-06-15T03:55:23.498Z,66.11
2018-06-15T03:57:51.898Z,65.33
2018-06-15T04:00:20.274Z,66.33
2018-06-15T04:02:48.770Z,66.12
2018-06-15T04:05:17.170Z,66.14
2018-06-15T04:07:45.627Z,66.34
2018-06-15T04:10:13.991Z,66.00
2018-06-15T04:12:42.390Z,66.71
2018-06-15T04:15:10.778Z,66.64
2018-06-15T04:17:39.180Z,66.13
2018-06-15T04:20:07.561Z,66.94
2018-06-15T04:22:35.963Z,66.53
2018-06-15T04:25:04.344Z,66.75
2018-06-15T04:27:32.746Z,66.97
2018-06-15T04:30:01.122Z,67.08
2018-06-15T04:32:29.626Z,66.57
2018-06-15T04:34:58.010Z,66.59
2018-06-15T04:37:26.465Z,67.35
2018-06-15T04:39:54.821Z,66.93
2018-06-15T04:42:23.227Z,66.64
2018-06-15T04:44:51.607Z,66.57
2018-06-15T04:47:20.019Z,67.46
2018-06-15T04:49:48.427Z,66.78
2018-06-15T04:52:16.800Z,67.68
2018-06-15T04:54:45.198Z,67.03
2018-06-15T04:57:13.575Z,67.18
2018-06-15T04:59:42.027Z,67.26
2018-06-15T05:02:10.410Z,67.96
2018-06-15T05:04:38.834Z,67.83
2018-06-15T05:07:07.220Z,67.84
2018-06-15T05:09:35.619Z,66.97
2018-06-15T05:12:03.999Z,66.87
2018-06-15T05:14:32.403Z,67.31
2018-06-15T05:17:00.824Z,66.98
2018-06-15T05:19:29.227Z,67.38
2018-06-15T05:21:57.618Z,67.23
2018-06-15T05:24:26.024Z,66.58
2018-06-15T05:26:54.411Z,66.15
2018-06-15T05:29:23.162Z,66.69
2018-06-15T05:31:51.551Z,65.70
2018-06-15T05:34:19.946Z,66.01
2018-06-15T05:36:48.328Z,65.77
2018-06-15T05:39:16.756Z,65.98
2018-06-15T05:41:45.139Z,66.02
2018-06-15T05:44:13.589Z,65.88
2018-06-15T05:46:42.002Z,65.50
2018-06-15T05:49:10.386Z,65.68
2018-06-15T05:51:38.871Z,65.50
2018-06-15T05:54:07.250Z,64.79
2018-06-15T05:56:35.663Z,65.38
2018-06-15T05:59:04.063Z,65.16
2018-06-15T06:01:32.504Z,64.29
2018-06-15T06:04:00.996Z,65.07
2018-06-15T06:06:29.378Z,64.60
2018-06-15T06:08:57.759Z,64.77
2018-06-15T06:11:26.164Z,63.86
2018-06-15T06:13:54.539Z,64.58
2018-06-15T06:16:22.938Z,64.64
2018-06-15T06:18:51.314Z,64.03
2018-06-15T06:21:19.719Z,64.20
2018-06-15T06:23:48.099Z,63.97
2018-06-15T06:26:16.507Z,63.98
2018-06-15T06:28:44.886Z,63.49
2018-06-15T06:31:13.305Z,64.06
2018-06-15T06:33:41.689Z,64.22
2018-06-15T06:36:10.066Z,64.16
2018-06-15T06:38:38.462Z,64.46
2018-06-15T06:41:06.983Z,64.25
2018-06-15T06:43:35.406Z,64.30
2018-06-15T06:46:03.798Z,63.50
2018-06-15T06:48:32.190Z,63.16
2018-06-15T06:51:00.567Z,63.19
2018-06-15T06:53:28.990Z,64.00
2018-06-15T06:55:57.362Z,63.18
2018-06-15T06:58:25.782Z,63.99
2018-06-15T07:00:54.165Z,63.49
2018-06-15T07:03:22.567Z,63.91
2018-06-15T07:05:50.966Z,64.57
2018-06-15T07:08:19.367Z,64.22
2018-06-15T07:10:47.747Z,63.45
2018-06-15T07:13:16.188Z,63.21
2018-06-15T07:15:44.570Z,64.09
2018-06-15T07:18:13.143Z,63.28
2018-06-15T07:20:41.610Z,63.02
2018-06-15T07:23:10.091Z,62.35
2018-06-15T07:25:38.480Z,62.81
2018-06-15T07:28:06.874Z,61.79
2018-06-15T07:30:35.250Z,62.40
2018-06-15T07:33:03.711Z,61.47
2018-06-15T07:35:32.111Z,60.43
2018-06-15T07:38:00.486Z,60.39
2018-06-15T07:40:28.890Z,59.02
2018-06-15T07:42:57.331Z,59.10
2018-06-15T07:45:25.723Z,59.36
2018-06-15T07:47:54.095Z,59.54
2018-06-15T07:50:22.498Z,59.82
2018-06-15T07:52:50.888Z,59.41
2018-06-15T07:55:19.363Z,58.68
2018-06-15T07:57:47.771Z,59.31
2018-06-15T08:00:16.171Z,58.58
2018-06-15T08:02:44.546Z,57.81
2018-06-15T08:05:12.967Z,57.16
2018-06-15T08:07:41.351Z,56.68
2018-06-15T08:10:09.753Z,56.06
2018-06-15T08:12:38.188Z,55.61
2018-06-15T08:15:06.582Z,55.26
2018-06-15T08:17:34.958Z,55.70
2018-06-15T08:20:03.362Z,54.69
2018-06-15T08:22:31.738Z,53.85
2018-06-15T08:25:00.141Z,53.04
2018-06-15T08:27:28.532Z,51.53
2018-06-15T08:29:56.934Z,51.22
2018-06-15T08:32:25.310Z,51.28
2018-06-15T08:34:53.715Z,52.15
2018-06-15T08:37:22.090Z,52.45
2018-06-15T08:39:50.526Z,52.32
2018-06-15T08:42:18.914Z,52.36
2018-06-15T08:44:47.347Z,52.60
2018-06-15T08:47:15.721Z,52.11
2018-06-15T08:49:44.185Z,52.69
2018-06-15T08:52:12.588Z,53.15
2018-06-15T08:54:40.971Z,52.96
2018-06-15T08:57:09.370Z,51.61
2018-06-15T08:59:37.789Z,51.41
2018-06-15T09:02:06.195Z,50.67
2018-06-15T09:04:34.574Z,49.34
2018-06-15T09:07:02.999Z,48.99
2018-06-15T09:09:31.370Z,46.73
2018-06-15T09:11:59.774Z,46.25
2018-06-15T09:14:28.147Z,45.34
2018-06-15T09:16:56.538Z,44.78
2018-06-15T09:19:25.163Z,43.99
2018-06-15T09:21:53.567Z,43.95
2018-06-15T09:24:21.943Z,44.61
2018-06-15T09:26:50.339Z,43.66
2018-06-15T09:29:18.710Z,43.50
2018-06-15T09:31:47.109Z,43.48
2018-06-15T09:34:15.482Z,43.87
2018-06-15T09:36:43.883Z,44.83
2018-06-15T09:39:12.898Z,45.56
2018-06-15T09:41:41.826Z,45.36
2018-06-15T09:44:10.219Z,45.05
2018-06-15T09:46:38.666Z,45.85
2018-06-15T09:49:08.006Z,44.36
2018-06-15T09:51:36.398Z,44.28
2018-06-15T09:54:04.775Z,44.44
2018-06-15T09:56:33.178Z,45.26
2018-06-15T09:59:01.554Z,45.74
2018-06-15T10:01:29.947Z,44.75
2018-06-15T10:03:58.318Z,44.27
2018-06-15T10:06:26.715Z,44.60
2018-06-15T10:08:55.110Z,45.04
2018-06-15T10:11:23.491Z,44.69
2018-06-15T10:13:51.887Z,44.44
2018-06-15T10:16:20.258Z,44.35
2018-06-15T10:18:48.659Z,44.33
2018-06-15T10:21:17.030Z,43.09
2018-06-15T10:23:45.423Z,42.73
2018-06-15T10:26:13.799Z,42.08
2018-06-15T10:28:42.195Z,41.48
2018-06-15T10:31:10.575Z,41.49
2018-06-15T10:33:38.976Z,41.51
2018-06-15T10:36:07.360Z,41.55
2018-06-15T10:38:35.762Z,41.49
2018-06-15T10:41:04.151Z,42.38
2018-06-15T10:43:32.551Z,42.69
2018-06-15T10:46:00.930Z,41.99
2018-06-15T10:48:29.342Z,41.83
2018-06-15T10:50:57.727Z,42.18
2018-06-15T10:53:26.126Z,42.33
2018-06-15T10:55:54.507Z,42.02
2018-06-15T10:58:22.893Z,41.65
2018-06-15T11:00:51.259Z,41.69
2018-06-15T11:03:19.654Z,41.94
2018-06-15T11:05:48.055Z,43.02
2018-06-15T11:08:16.458Z,44.08
2018-06-15T11:10:44.863Z,43.66
2018-06-15T11:13:13.262Z,44.05
2018-06-15T11:15:41.638Z,43.28
2018-06-15T11:18:10.150Z,42.81
2018-06-15T11:20:38.599Z,42.57
2018-06-15T11:23:07.015Z,42.71
2018-06-15T11:25:35.411Z,42.57
2018-06-15T11:28:03.788Z,41.96
2018-06-15T11:30:32.216Z,41.32
2018-06-15T11:33:00.597Z,41.91
2018-06-15T11:35:28.996Z,40.26
2018-06-15T11:37:57.378Z,42.04
2018-06-15T11:40:25.783Z,41.54
2018-06-15T11:42:54.159Z,39.84
2018-06-15T11:45:22.572Z,39.74
2018-06-15T11:47:50.968Z,40.16
2018-06-15T11:50:19.364Z,40.16
2018-06-15T11:52:47.739Z,39.19
2018-06-15T11:55:16.151Z,40.25
2018-06-15T11:57:44.534Z,38.74
2018-06-15T12:00:12.968Z,38.02
2018-06-15T12:02:41.342Z,39.08
2018-06-15T12:05:09.763Z,38.96
2018-06-15T12:07:38.142Z,39.25
2018-06-15T12:10:06.547Z,38.61
2018-06-15T12:12:34.931Z,38.88
2018-06-15T12:15:03.343Z,38.48
2018-06-15T12:17:31.714Z,38.36
2018-06-15T12:20:00.115Z,38.15
2018-06-15T12:22:28.491Z,38.43
2018-06-15T12:24:57.115Z,37.54
2018-06-15T12:27:25.554Z,37.77
2018-06-15T12:29:54.075Z,37.00
2018-06-15T12:32:22.458Z,36.65
2018-06-15T12:34:50.856Z,35.37
2018-06-15T12:37:19.235Z,36.38
2018-06-15T12:39:47.646Z,37.33
2018-06-15T12:42:16.022Z,36.63
2018-06-15T12:44:44.430Z,37.55
2018-06-15T12:47:12.834Z,36.15
2018-06-15T12:49:41.210Z,36.85
2018-06-15T12:52:09.598Z,37.01
2018-06-15T12:54:38.254Z,36.93
2018-06-15T12:57:07.070Z,37.69
2018-06-15T12:59:37.131Z,37.56
2018-06-15T13:02:05.582Z,37.23
2018-06-15T13:04:33.985Z,37.76
2018-06-15T13:07:02.423Z,37.28
2018-06-15T13:09:30.797Z,37.15
2018-06-15T13:11:59.191Z,37.49
2018-06-15T13:14:27.586Z,36.66
2018-06-15T13:16:55.992Z,36.40
2018-06-15T13:19:24.377Z,35.79
2018-06-15T13:21:52.775Z,35.50
2018-06-15T13:24:21.143Z,34.00
2018-06-15T13:26:49.539Z,35.13
2018-06-15T13:29:17.918Z,35.91
2018-06-15T13:31:46.307Z,35.70
2018-06-15T13:34:14.730Z,35.10
2018-06-15T13:36:43.127Z,34.16
2018-06-15T13:39:13.074Z,36.40
2018-06-15T13:41:41.483Z,35.72
2018-06-15T13:44:09.854Z,35.70
2018-06-15T13:46:38.246Z,34.95
2018-06-15T13:49:06.694Z,35.63
2018-06-15T13:51:35.095Z,33.46
2018-06-15T13:54:03.656Z,33.32
2018-06-15T13:56:32.047Z,33.73
2018-06-15T13:59:00.418Z,34.20
2018-06-15T14:01:28.819Z,33.73
2018-06-15T14:03:57.464Z,33.40
2018-06-15T14:06:25.878Z,33.67
2018-06-15T14:08:54.255Z,33.27
2018-06-15T14:11:22.703Z,33.41
2018-06-15T14:13:51.095Z,33.23
2018-06-15T14:16:19.467Z,32.63
2018-06-15T14:18:47.867Z,33.54
2018-06-15T14:21:16.247Z,33.50
2018-06-15T14:23:44.642Z,33.68
2018-06-15T14:26:13.302Z,32.97
2018-06-15T14:28:42.367Z,33.24
2018-06-15T14:31:10.742Z,33.04
2018-06-15T14:33:39.139Z,32.40
2018-06-15T14:36:08.057Z,32.95
2018-06-15T14:38:36.458Z,33.10
2018-06-15T14:41:04.849Z,33.00
2018-06-15T14:43:33.243Z,32.76
2018-06-15T14:46:01.655Z,32.86
2018-06-15T14:48:30.066Z,33.63
2018-06-15T14:50:58.438Z,34.24
2018-06-15T14:53:27.032Z,34.52
2018-06-15T14:55:55.409Z,33.86
2018-06-15T14:58:23.864Z,34.16
2018-06-15T15:00:52.210Z,33.99
2018-06-15T15:03:20.602Z,34.19
2018-06-15T15:05:49.001Z,34.51
2018-06-15T15:08:17.438Z,34.11
2018-06-15T15:10:45.810Z,34.94
2018-06-15T15:13:14.242Z,35.06
2018-06-15T15:15:42.646Z,35.47
2018-06-15T15:18:11.049Z,34.79
2018-06-15T15:20:39.427Z,35.33
2018-06-15T15:23:07.839Z,34.78
2018-06-15T15:25:36.218Z,34.70
2018-06-15T15:28:04.676Z,35.49
2018-06-15T15:30:33.058Z,35.08
2018-06-15T15:33:01.440Z,35.31
2018-06-15T15:35:29.838Z,33.89
2018-06-15T15:37:58.250Z,35.04
2018-06-15T15:40:26.650Z,35.03
2018-06-15T15:42:55.019Z,34.83
2018-06-15T15:45:23.423Z,36.10
2018-06-15T15:47:51.795Z,35.06
2018-06-15T15:50:20.196Z,34.86
2018-06-15T15:52:48.578Z,35.02
2018-06-15T15:55:16.974Z,35.27
2018-06-15T15:57:45.397Z,35.29
2018-06-15T16:00:13.775Z,35.69
2018-06-15T16:02:42.160Z,36.15
2018-06-15T16:05:10.605Z,34.98
2018-06-15T16:07:38.983Z,34.91
2018-06-15T16:10:07.454Z,34.86
2018-06-15T16:12:35.834Z,34.71
2018-06-15T16:15:04.231Z,34.46
2018-06-15T16:17:32.612Z,34.29
2018-06-15T16:20:01.022Z,34.73
2018-06-15T16:22:29.396Z,35.28
2018-06-15T16:24:57.799Z,35.63
2018-06-15T16:27:26.195Z,34.99
2018-06-15T16:29:54.608Z,35.62
2018-06-15T16:32:23.018Z,36.34
2018-06-15T16:34:51.424Z,36.29
2018-06-15T16:37:19.817Z,36.37
2018-06-15T16:39:48.235Z,36.87
2018-06-15T16:42:16.714Z,37.68
2018-06-15T16:44:45.114Z,37.61
2018-06-15T16:47:13.490Z,36.38
2018-06-15T16:49:41.906Z,37.86
2018-06-15T16:52:10.647Z,37.56
2018-06-15T16:54:39.027Z,40.31
2018-06-15T16:57:07.566Z,40.85
2018-06-15T16:59:35.959Z,42.87
2018-06-15T17:02:04.393Z,43.22
2018-06-15T17:04:32.771Z,44.77
2018-06-15T17:07:01.194Z,44.99
2018-06-15T17:09:29.571Z,46.60
2018-06-15T17:11:57.974Z,47.29
2018-06-15T17:14:26.359Z,47.74
2018-06-15T17:16:54.759Z,48.09
2018-06-15T17:19:23.150Z,49.15
2018-06-15T17:21:51.690Z,49.49
2018-06-15T17:24:20.645Z,49.27
2018-06-15T17:26:49.087Z,50.18
2018-06-15T17:29:17.477Z,50.06
2018-06-15T17:31:45.878Z,50.97
2018-06-15T17:34:14.255Z,50.53
2018-06-15T17:36:45.103Z,51.36
2018-06-15T17:39:14.354Z,50.63
2018-06-15T17:41:43.886Z,51.80
2018-06-15T17:44:12.270Z,51.81
2018-06-15T17:46:40.679Z,51.20
2018-06-15T17:49:09.425Z,52.02
2018-06-15T17:51:37.914Z,51.85
2018-06-15T17:54:06.609Z,51.64
2018-06-15T17:56:35.114Z,51.34
2018-06-15T17:59:03.534Z,50.80
2018-06-15T18:01:32.146Z,51.26
2018-06-15T18:04:00.520Z,50.96
2018-06-15T18:06:29.107Z,50.91
2018-06-15T18:08:57.551Z,51.94
2018-06-15T18:11:26.025Z,51.47
2018-06-15T18:13:54.514Z,51.53
2018-06-15T18:16:22.907Z,52.26
2018-06-15T18:18:51.298Z,52.38
2018-06-15T18:21:19.711Z,52.45
2018-06-15T18:23:48.118Z,53.00
2018-06-15T18:26:16.498Z,52.28
2018-06-15T18:28:44.926Z,52.38
2018-06-15T18:31:13.315Z,52.61
2018-06-15T18:33:41.715Z,52.84
2018-06-15T18:36:10.096Z,52.88
2018-06-15T18:38:38.508Z,53.33
2018-06-15T18:41:07.075Z,53.52
2018-06-15T18:43:35.488Z,54.47
2018-06-15T18:46:03.890Z,54.05
2018-06-15T18:48:32.367Z,54.98
2018-06-15T18:51:00.747Z,54.48
2018-06-15T18:53:29.150Z,55.23
2018-06-15T18:55:57.539Z,54.51
2018-06-15T18:58:25.952Z,55.24
2018-06-15T19:00:54.655Z,54.60
2018-06-15T19:03:23.219Z,55.42
2018-06-15T19:05:51.623Z,55.90
2018-06-15T19:08:20.027Z,55.98
2018-06-15T19:10:48.418Z,56.48
2018-06-15T19:13:16.839Z,56.72
2018-06-15T19:15:45.218Z,56.60
2018-06-15T19:18:13.622Z,56.90
2018-06-15T19:20:41.999Z,57.15
2018-06-15T19:23:10.403Z,57.27
2018-06-15T19:25:38.783Z,57.49
2018-06-15T19:28:07.185Z,58.07
2018-06-15T19:30:35.570Z,57.54
2018-06-15T19:33:04.043Z,57.64
2018-06-15T19:35:32.430Z,57.74
2018-06-15T19:38:00.857Z,57.99
2018-06-15T19:40:29.232Z,58.60
2018-06-15T19:42:57.598Z,58.72
2018-06-15T19:45:25.999Z,58.54
2018-06-15T19:47:54.380Z,58.88
2018-06-15T19:50:22.783Z,58.68
2018-06-15T19:52:51.158Z,59.02
2018-06-15T19:55:19.558Z,59.30
2018-06-15T19:57:47.930Z,59.27
2018-06-15T20:00:16.338Z,59.18
2018-06-15T20:02:44.763Z,59.34
2018-06-15T20:05:13.328Z,58.83
2018-06-15T20:07:41.671Z,59.12
2018-06-15T20:10:10.073Z,59.72
2018-06-15T20:12:38.470Z,59.25
2018-06-15T20:15:06.879Z,59.19
2018-06-15T20:17:35.254Z,59.08
2018-06-15T20:20:03.783Z,59.21
2018-06-15T20:22:32.163Z,59.58
2018-06-15T20:25:00.571Z,59.36
2018-06-15T20:27:28.942Z,59.88
2018-06-15T20:29:57.347Z,60.39
2018-06-15T20:32:25.731Z,60.03
2018-06-15T20:34:54.135Z,60.12
2018-06-15T20:37:22.511Z,61.07
2018-06-15T20:39:50.914Z,60.21
2018-06-15T20:42:19.303Z,60.28
2018-06-15T20:44:47.706Z,60.78
2018-06-15T20:47:16.087Z,61.45
2018-06-15T20:49:44.506Z,60.80
2018-06-15T20:52:12.890Z,60.70
2018-06-15T20:54:41.333Z,60.94
2018-06-15T20:57:09.756Z,61.28
2018-06-15T20:59:38.183Z,61.42
2018-06-15T21:02:06.585Z,61.49
2018-06-15T21:04:34.962Z,61.60
2018-06-15T21:07:03.362Z,62.21
2018-06-15T21:09:31.748Z,61.86
2018-06-15T21:12:00.147Z,61.70
2018-06-15T21:14:28.578Z,62.75
2018-06-15T21:16:56.974Z,62.54
2018-06-15T21:19:25.353Z,62.12
2018-06-15T21:21:53.756Z,62.86
2018-06-15T21:24:22.130Z,62.35
2018-06-15T21:26:50.526Z,62.82
2018-06-15T21:29:18.898Z,62.26
2018-06-15T21:31:47.294Z,63.23
2018-06-15T21:34:15.666Z,62.98
2018-06-15T21:36:44.075Z,63.28
2018-06-15T21:39:12.458Z,64.10
2018-06-15T21:41:40.859Z,63.00
2018-06-15T21:44:09.240Z,62.80
2018-06-15T21:46:37.638Z,63.10
2018-06-15T21:49:06.011Z,62.94
2018-06-15T21:51:34.691Z,63.08
2018-06-15T21:54:03.128Z,63.54
2018-06-15T21:56:31.527Z,63.46
2018-06-15T21:58:59.899Z,63.35
2018-06-15T22:01:29.947Z,63.94
2018-06-15T22:03:58.914Z,63.20
2018-06-15T22:06:27.422Z,64.00
2018-06-15T22:08:55.803Z,63.97
2018-06-15T22:11:24.206Z,63.56
2018-06-15T22:13:52.606Z,63.26
2018-06-15T22:16:21.055Z,64.02
2018-06-15T22:18:49.426Z,63.35
2018-06-15T22:21:17.835Z,63.74
2018-06-15T22:23:46.239Z,63.61
2018-06-15T22:26:14.612Z,64.24
2018-06-15T22:28:43.011Z,63.77
2018-06-15T22:31:11.388Z,63.50
2018-06-15T22:33:39.787Z,63.72
2018-06-15T22:36:08.182Z,63.62
2018-06-15T22:38:36.594Z,64.16
2018-06-15T22:41:04.971Z,64.54
2018-06-15T22:43:33.373Z,64.10
2018-06-15T22:46:01.747Z,64.35
2018-06-15T22:48:30.182Z,64.06
2018-06-15T22:50:58.562Z,64.65
2018-06-15T22:53:26.967Z,64.19
2018-06-15T22:55:55.348Z,65.06
2018-06-15T22:58:23.751Z,64.82
2018-06-15T23:00:52.126Z,65.28
2018-06-15T23:03:20.532Z,65.59
2018-06-15T23:05:48.917Z,65.46
2018-06-15T23:08:17.319Z,65.66
2018-06-15T23:10:45.703Z,65.71
2018-06-15T23:13:14.175Z,66.06
2018-06-15T23:15:42.550Z,65.86
2018-06-15T23:18:10.967Z,66.21
2018-06-15T23:20:39.347Z,66.04
2018-06-15T23:23:07.750Z,65.48
2018-06-15T23:25:36.124Z,66.24
2018-06-15T23:28:04.694Z,66.54
2018-06-15T23:30:33.071Z,65.86
2018-06-15T23:33:01.483Z,66.55
2018-06-15T23:35:29.866Z,65.98
2018-06-15T23:37:58.264Z,66.01
2018-06-15T23:40:26.634Z,66.24
2018-06-15T23:42:55.035Z,65.77
2018-06-15T23:45:23.430Z,65.78
2018-06-15T23:47:51.806Z,65.78
2018-06-15T23:50:20.202Z,66.01
2018-06-15T23:52:48.585Z,66.74
2018-06-15T23:55:16.978Z,66.45
2018-06-15T23:57:45.373Z,66.78
